Ojmjakon, Russia
Current Conditions -  °F | °C
As of 9:00 AM on Monday 26 Jan 2015 (Local Time) from UHMM Reporting Station
Scattered Clouds Scattered Clouds  
Wind Chill: -33°   Ceiling: Unl
Heat Index: -33°   Visibility: 6mi
Dew Point: -38°   Wind: 0mph
Humidity: 75%   Direction: NA
Pressure: 30.06"   Gusts: NA
Location:  63.25°N, 143.15°E
Report Text: UHMM 252200Z 00000MPS 9999 SCT200 M36/M39 Q1018 RMK QFE74988410550 MT OPEN
Loading
Personal Weather Stations






























Interactive Weather Map New forecast layout! Learn more

10-Day Weather Forecast

Advertisements
Track Severe Weather on mobile